createdAt,value
2018-06-02T00:00:46.079Z,0
2018-06-02T00:01:46.792Z,0
2018-06-02T00:02:47.506Z,0
2018-06-02T00:03:48.227Z,0
2018-06-02T00:04:48.935Z,0
2018-06-02T00:05:49.648Z,0
2018-06-02T00:06:50.362Z,0
2018-06-02T00:07:51.076Z,0
2018-06-02T00:08:51.790Z,0
2018-06-02T00:09:52.504Z,0
2018-06-02T00:11:53.846Z,0
2018-06-02T00:12:54.560Z,0
2018-06-02T00:13:55.272Z,0
2018-06-02T00:14:55.998Z,0
2018-06-02T00:15:56.710Z,0
2018-06-02T00:16:57.430Z,0
2018-06-02T00:17:58.153Z,0
2018-06-02T00:18:58.872Z,0
2018-06-02T00:19:59.583Z,0
2018-06-02T00:21:00.301Z,0
2018-06-02T00:22:01.019Z,0
2018-06-02T00:23:01.739Z,0
2018-06-02T00:24:02.451Z,0
2018-06-02T00:25:03.165Z,0
2018-06-02T00:26:03.878Z,0
2018-06-02T00:27:04.599Z,0
2018-06-02T00:28:05.303Z,0
2018-06-02T00:29:06.028Z,0
2018-06-02T00:30:06.743Z,0
2018-06-02T00:31:07.463Z,0
2018-06-02T00:32:08.171Z,0
2018-06-02T00:33:08.884Z,0
2018-06-02T00:34:09.597Z,0
2018-06-02T00:35:10.321Z,0
2018-06-02T00:36:11.034Z,0
2018-06-02T00:37:11.747Z,0
2018-06-02T00:38:12.461Z,0
2018-06-02T00:39:13.178Z,0
2018-06-02T00:40:13.903Z,0
2018-06-02T00:41:14.616Z,0
2018-06-02T00:42:15.328Z,0
2018-06-02T00:43:16.044Z,0
2018-06-02T00:44:16.757Z,0
2018-06-02T00:45:17.472Z,0
2018-06-02T00:46:18.187Z,0
2018-06-02T00:47:18.912Z,0
2018-06-02T00:48:19.625Z,0
2018-06-02T00:49:20.337Z,0
2018-06-02T00:50:21.050Z,0
2018-06-02T00:51:21.774Z,0
2018-06-02T00:52:22.488Z,0
2018-06-02T00:53:23.200Z,0
2018-06-02T00:54:23.914Z,0
2018-06-02T00:55:24.628Z,0
2018-06-02T00:56:25.342Z,0
2018-06-02T00:57:26.055Z,0
2018-06-02T00:58:26.770Z,0
2018-06-02T00:59:27.484Z,0
2018-06-02T01:00:28.199Z,0
2018-06-02T01:01:28.912Z,0
2018-06-02T01:02:29.627Z,0
2018-06-02T01:03:30.339Z,0
2018-06-02T01:04:31.054Z,0
2018-06-02T01:05:31.777Z,0
2018-06-02T01:06:32.490Z,0
2018-06-02T01:07:33.205Z,0
2018-06-02T01:08:33.921Z,0
2018-06-02T01:09:34.638Z,0
2018-06-02T01:10:35.353Z,0
2018-06-02T01:11:36.069Z,0
2018-06-02T01:12:36.783Z,0
2018-06-02T01:13:37.498Z,0
2018-06-02T01:14:38.213Z,0
2018-06-02T01:15:38.927Z,0
2018-06-02T01:16:39.641Z,0
2018-06-02T01:17:40.370Z,0
2018-06-02T01:18:41.086Z,0
2018-06-02T01:19:41.797Z,0
2018-06-02T01:20:42.511Z,0
2018-06-02T01:21:43.226Z,0
2018-06-02T01:22:43.940Z,0
2018-06-02T01:23:44.655Z,0
2018-06-02T01:24:45.369Z,0
2018-06-02T01:25:46.082Z,0
2018-06-02T01:26:46.799Z,0
2018-06-02T01:27:47.510Z,0
2018-06-02T01:28:48.225Z,0
2018-06-02T01:29:48.941Z,0
2018-06-02T01:30:49.654Z,0
2018-06-02T01:31:50.371Z,0
2018-06-02T01:32:51.081Z,0
2018-06-02T01:33:51.796Z,0
2018-06-02T01:34:52.523Z,0
2018-06-02T01:35:53.238Z,0
2018-06-02T01:36:53.963Z,0
2018-06-02T01:37:54.677Z,0
2018-06-02T01:38:55.393Z,0
2018-06-02T01:39:56.118Z,0
2018-06-02T01:40:56.835Z,0
2018-06-02T01:41:57.548Z,0
2018-06-02T01:42:58.275Z,0
2018-06-02T01:43:58.988Z,0
2018-06-02T01:44:59.713Z,0
2018-06-02T01:46:00.428Z,0
2018-06-02T01:47:01.143Z,0
2018-06-02T01:48:01.857Z,0
2018-06-02T01:49:02.581Z,0
2018-06-02T01:50:03.295Z,0
2018-06-02T01:51:04.008Z,0
2018-06-02T01:52:04.740Z,0
2018-06-02T01:53:05.451Z,0
2018-06-02T01:54:06.173Z,0
2018-06-02T01:55:06.889Z,0
2018-06-02T01:56:07.603Z,0
2018-06-02T01:57:08.317Z,0
2018-06-02T01:58:09.047Z,0
2018-06-02T01:59:09.761Z,0
2018-06-02T02:00:10.476Z,0
2018-06-02T02:01:11.192Z,0
2018-06-02T02:02:11.907Z,0
2018-06-02T02:03:12.621Z,0
2018-06-02T02:04:13.335Z,0
2018-06-02T02:05:14.062Z,0
2018-06-02T02:06:14.776Z,0
2018-06-02T02:07:15.491Z,0
2018-06-02T02:08:16.218Z,0
2018-06-02T02:09:16.934Z,0
2018-06-02T02:10:17.650Z,0
2018-06-02T02:11:18.364Z,0
2018-06-02T02:12:19.079Z,0
2018-06-02T02:13:19.796Z,0
2018-06-02T02:14:20.511Z,0
2018-06-02T02:15:21.225Z,0
2018-06-02T02:16:21.940Z,0
2018-06-02T02:17:22.667Z,0
2018-06-02T02:18:23.381Z,0
2018-06-02T02:19:24.098Z,0
2018-06-02T02:20:24.809Z,0
2018-06-02T02:21:25.526Z,0
2018-06-02T02:22:26.238Z,0
2018-06-02T02:23:26.951Z,0
2018-06-02T02:24:27.666Z,0
2018-06-02T02:25:28.379Z,0
2018-06-02T02:26:29.106Z,0
2018-06-02T02:27:29.820Z,0
2018-06-02T02:28:30.538Z,0
2018-06-02T02:29:31.252Z,0
2018-06-02T02:30:31.967Z,0
2018-06-02T02:31:32.692Z,0
2018-06-02T02:32:33.406Z,0
2018-06-02T02:33:34.122Z,0
2018-06-02T02:34:34.836Z,0
2018-06-02T02:35:35.552Z,0
2018-06-02T02:36:36.279Z,0
2018-06-02T02:37:37.038Z,0
2018-06-02T02:38:37.711Z,0
2018-06-02T02:39:38.438Z,0
2018-06-02T02:40:39.152Z,0
2018-06-02T02:41:39.866Z,0
2018-06-02T02:42:40.591Z,0
2018-06-02T02:43:41.319Z,0
2018-06-02T02:44:42.035Z,0
2018-06-02T02:45:42.749Z,0
2018-06-02T02:46:43.464Z,0
2018-06-02T02:47:44.189Z,0
2018-06-02T02:48:44.911Z,0
2018-06-02T02:49:45.629Z,0
2018-06-02T02:50:46.357Z,0
2018-06-02T02:51:47.072Z,0
2018-06-02T02:52:47.787Z,0
2018-06-02T02:53:48.503Z,0
2018-06-02T02:54:49.216Z,0
2018-06-02T02:55:49.931Z,0
2018-06-02T02:56:50.645Z,0
2018-06-02T02:57:51.359Z,0
2018-06-02T02:58:52.074Z,0
2018-06-02T02:59:52.789Z,0
2018-06-02T03:00:53.503Z,0
2018-06-02T03:01:54.225Z,0
2018-06-02T03:02:54.944Z,0
2018-06-02T03:03:55.655Z,0
2018-06-02T03:04:56.369Z,0
2018-06-02T03:05:57.083Z,0
2018-06-02T03:06:57.799Z,0
2018-06-02T03:07:58.515Z,0
2018-06-02T03:08:59.243Z,0
2018-06-02T03:09:59.958Z,0
2018-06-02T03:11:00.672Z,0
2018-06-02T03:12:01.387Z,0
2018-06-02T03:13:02.113Z,0
2018-06-02T03:14:02.841Z,0
2018-06-02T03:15:03.560Z,0
2018-06-02T03:16:04.274Z,0
2018-06-02T03:17:04.991Z,0
2018-06-02T03:18:05.705Z,0
2018-06-02T03:19:06.420Z,0
2018-06-02T03:20:07.144Z,0
2018-06-02T03:21:07.870Z,0
2018-06-02T03:22:08.584Z,0
2018-06-02T03:23:09.298Z,0
2018-06-02T03:24:10.015Z,0
2018-06-02T03:25:10.731Z,0
2018-06-02T03:26:11.458Z,0
2018-06-02T03:27:12.171Z,0
2018-06-02T03:28:12.887Z,0
2018-06-02T03:29:13.600Z,0
2018-06-02T03:30:14.313Z,0
2018-06-02T03:31:15.034Z,0
2018-06-02T03:32:15.745Z,0
2018-06-02T03:33:16.460Z,0
2018-06-02T03:34:17.175Z,0
2018-06-02T03:35:17.892Z,0
2018-06-02T03:36:18.607Z,0
2018-06-02T03:37:19.337Z,0
2018-06-02T03:38:20.064Z,0
2018-06-02T03:39:20.792Z,0
2018-06-02T03:40:21.506Z,0
2018-06-02T03:41:22.234Z,5
2018-06-02T03:42:22.951Z,5
2018-06-02T03:43:23.665Z,5
2018-06-02T03:44:24.380Z,5
2018-06-02T03:45:25.094Z,5
2018-06-02T03:46:25.809Z,5
2018-06-02T03:47:26.524Z,5
2018-06-02T03:48:27.239Z,5
2018-06-02T03:49:27.952Z,5
2018-06-02T03:50:28.668Z,5
2018-06-02T03:51:29.395Z,5
2018-06-02T03:52:30.124Z,5
2018-06-02T03:53:30.839Z,5
2018-06-02T03:54:31.552Z,5
2018-06-02T03:55:32.267Z,5
2018-06-02T03:56:32.997Z,5
2018-06-02T03:57:33.708Z,5
2018-06-02T03:58:34.423Z,5
2018-06-02T03:59:35.137Z,5
2018-06-02T04:00:35.850Z,5
2018-06-02T04:01:36.567Z,5
2018-06-02T04:02:37.283Z,5
2018-06-02T04:03:37.996Z,5
2018-06-02T04:04:38.717Z,5
2018-06-02T04:05:39.429Z,5
2018-06-02T04:06:40.145Z,5
2018-06-02T04:07:40.862Z,5
2018-06-02T04:08:41.580Z,5
2018-06-02T04:09:42.310Z,5
2018-06-02T04:10:43.032Z,10
2018-06-02T04:11:43.750Z,5
2018-06-02T04:12:44.466Z,5
2018-06-02T04:13:45.183Z,5
2018-06-02T04:14:45.900Z,5
2018-06-02T04:15:46.646Z,5
2018-06-02T04:16:47.329Z,5
2018-06-02T04:17:48.056Z,5
2018-06-02T04:18:48.782Z,5
2018-06-02T04:19:49.484Z,5
2018-06-02T04:20:50.213Z,5
2018-06-02T04:21:50.930Z,5
2018-06-02T04:22:51.645Z,5
2018-06-02T04:23:52.370Z,5
2018-06-02T04:24:53.097Z,5
2018-06-02T04:25:53.813Z,5
2018-06-02T04:26:54.527Z,5
2018-06-02T04:27:55.244Z,5
2018-06-02T04:28:55.961Z,5
2018-06-02T04:29:56.678Z,5
2018-06-02T04:30:57.406Z,10
2018-06-02T04:31:58.121Z,10
2018-06-02T04:32:58.847Z,5
2018-06-02T04:33:59.576Z,10
2018-06-02T04:35:00.293Z,10
2018-06-02T04:36:01.010Z,10
2018-06-02T04:37:01.736Z,5
2018-06-02T04:38:02.451Z,10
2018-06-02T04:39:03.185Z,10
2018-06-02T04:40:03.905Z,10
2018-06-02T04:41:04.628Z,10
2018-06-02T04:42:05.345Z,10
2018-06-02T04:43:06.075Z,10
2018-06-02T04:44:06.832Z,10
2018-06-02T04:45:07.510Z,10
2018-06-02T04:46:08.227Z,10
2018-06-02T04:47:08.944Z,10
2018-06-02T04:48:09.659Z,10
2018-06-02T04:49:10.376Z,10
2018-06-02T04:50:11.093Z,10
2018-06-02T04:51:11.809Z,15
2018-06-02T04:52:12.541Z,15
2018-06-02T04:53:13.260Z,15
2018-06-02T04:54:13.975Z,15
2018-06-02T04:55:14.703Z,15
2018-06-02T04:56:15.419Z,15
2018-06-02T04:57:16.135Z,15
2018-06-02T04:58:16.853Z,15
2018-06-02T04:59:17.570Z,15
2018-06-02T05:00:18.292Z,15
2018-06-02T05:01:19.064Z,15
2018-06-02T05:02:19.782Z,15
2018-06-02T05:03:20.498Z,15
2018-06-02T05:04:21.220Z,15
2018-06-02T05:05:21.947Z,15
2018-06-02T05:06:22.663Z,15
2018-06-02T05:07:23.377Z,15
2018-06-02T05:08:24.105Z,20
2018-06-02T05:09:24.835Z,15
2018-06-02T05:10:25.554Z,20
2018-06-02T05:11:26.270Z,20
2018-06-02T05:12:26.988Z,20
2018-06-02T05:13:27.704Z,20
2018-06-02T05:14:28.419Z,20
2018-06-02T05:15:29.137Z,20
2018-06-02T05:16:29.853Z,20
2018-06-02T05:17:30.570Z,20
2018-06-02T05:18:31.287Z,25
2018-06-02T05:19:32.002Z,25
2018-06-02T05:20:32.733Z,25
2018-06-02T05:21:33.451Z,30
2018-06-02T05:22:34.167Z,25
2018-06-02T05:23:34.883Z,25
2018-06-02T05:24:35.613Z,25
2018-06-02T05:25:36.363Z,25
2018-06-02T05:26:37.079Z,25
2018-06-02T05:27:37.795Z,20
2018-06-02T05:28:38.511Z,25
2018-06-02T05:29:39.229Z,20
2018-06-02T05:30:39.949Z,20
2018-06-02T05:31:40.666Z,20
2018-06-02T05:32:41.383Z,20
2018-06-02T05:33:42.098Z,20
2018-06-02T05:34:42.814Z,20
2018-06-02T05:35:43.531Z,20
2018-06-02T05:36:44.248Z,20
2018-06-02T05:37:44.967Z,20
2018-06-02T05:38:45.683Z,20
2018-06-02T05:39:46.401Z,25
2018-06-02T05:40:47.116Z,25
2018-06-02T05:41:47.839Z,25
2018-06-02T05:42:48.562Z,25
2018-06-02T05:43:49.278Z,25
2018-06-02T05:44:50.010Z,30
2018-06-02T05:45:50.746Z,30
2018-06-02T05:46:51.453Z,30
2018-06-02T05:47:52.168Z,30
2018-06-02T05:48:52.885Z,30
2018-06-02T05:49:53.602Z,35
2018-06-02T05:50:54.320Z,35
2018-06-02T05:51:55.039Z,30
2018-06-02T05:52:55.770Z,35
2018-06-02T05:53:56.488Z,35
2018-06-02T05:54:57.269Z,30
2018-06-02T05:55:57.934Z,35
2018-06-02T05:56:58.651Z,35
2018-06-02T05:57:59.368Z,40
2018-06-02T05:59:00.086Z,40
2018-06-02T06:00:00.844Z,35
2018-06-02T06:01:01.533Z,35
2018-06-02T06:02:02.263Z,30
2018-06-02T06:03:02.981Z,35
2018-06-02T06:04:03.698Z,35
2018-06-02T06:05:04.418Z,30
2018-06-02T06:06:05.136Z,30
2018-06-02T06:07:05.851Z,30
2018-06-02T06:08:06.568Z,25
2018-06-02T06:09:07.284Z,25
2018-06-02T06:10:07.999Z,25
2018-06-02T06:11:08.726Z,25
2018-06-02T06:12:09.456Z,30
2018-06-02T06:13:10.174Z,25
2018-06-02T06:14:10.889Z,25
2018-06-02T06:15:11.617Z,25
2018-06-02T06:16:12.346Z,30
2018-06-02T06:17:13.064Z,30
2018-06-02T06:18:13.783Z,30
2018-06-02T06:19:14.498Z,25
2018-06-02T06:20:15.213Z,25
2018-06-02T06:21:15.929Z,25
2018-06-02T06:22:16.653Z,30
2018-06-02T06:23:17.381Z,30
2018-06-02T06:24:18.101Z,30
2018-06-02T06:25:18.820Z,30
2018-06-02T06:26:19.538Z,35
2018-06-02T06:27:20.255Z,35
2018-06-02T06:28:20.973Z,35
2018-06-02T06:29:21.702Z,40
2018-06-02T06:30:22.422Z,45
2018-06-02T06:31:23.140Z,45
2018-06-02T06:32:23.869Z,40
2018-06-02T06:33:24.598Z,40
2018-06-02T06:34:25.321Z,40
2018-06-02T06:35:26.036Z,40
2018-06-02T06:36:26.754Z,55
2018-06-02T06:37:27.471Z,55
2018-06-02T06:38:28.188Z,50
2018-06-02T06:39:28.907Z,50
2018-06-02T06:40:29.625Z,50
2018-06-02T06:41:30.342Z,60
2018-06-02T06:42:31.064Z,65
2018-06-02T06:43:31.780Z,55
2018-06-02T06:44:32.549Z,55
2018-06-02T06:45:33.218Z,55
2018-06-02T06:46:33.989Z,60
2018-06-02T06:47:34.667Z,60
2018-06-02T06:48:35.383Z,65
2018-06-02T06:49:36.114Z,60
2018-06-02T06:50:36.843Z,55
2018-06-02T06:51:37.549Z,55
2018-06-02T06:52:38.271Z,50
2018-06-02T06:53:38.999Z,55
2018-06-02T06:54:39.717Z,50
2018-06-02T06:55:40.449Z,45
2018-06-02T06:56:41.177Z,40
2018-06-02T06:57:41.958Z,35
2018-06-02T06:58:42.615Z,40
2018-06-02T06:59:43.333Z,35
2018-06-02T07:00:44.063Z,40
2018-06-02T07:01:44.781Z,45
2018-06-02T07:02:45.497Z,40
2018-06-02T07:03:46.215Z,45
2018-06-02T07:04:46.935Z,40
2018-06-02T07:05:47.654Z,35
2018-06-02T07:06:48.385Z,40
2018-06-02T07:07:49.105Z,40
2018-06-02T07:08:49.834Z,40
2018-06-02T07:09:50.539Z,45
2018-06-02T07:10:51.259Z,45
2018-06-02T07:11:52.059Z,40
2018-06-02T07:12:52.696Z,40
2018-06-02T07:13:53.414Z,35
2018-06-02T07:14:54.131Z,35
2018-06-02T07:15:54.847Z,45
2018-06-02T07:16:55.567Z,50
2018-06-02T07:17:56.284Z,40
2018-06-02T07:18:57.000Z,45
2018-06-02T07:19:57.734Z,45
2018-06-02T07:20:58.448Z,55
2018-06-02T07:21:59.166Z,50
2018-06-02T07:22:59.902Z,55
2018-06-02T07:24:00.616Z,55
2018-06-02T07:25:01.336Z,65
2018-06-02T07:26:02.056Z,65
2018-06-02T07:27:02.787Z,65
2018-06-02T07:28:03.504Z,65
2018-06-02T07:29:04.221Z,70
2018-06-02T07:30:04.939Z,80
2018-06-02T07:31:05.659Z,75
2018-06-02T07:32:06.378Z,80
2018-06-02T07:33:07.096Z,75
2018-06-02T07:34:07.813Z,65
2018-06-02T07:35:08.532Z,70
2018-06-02T07:36:09.286Z,70
2018-06-02T07:37:09.969Z,75
2018-06-02T07:38:10.689Z,65
2018-06-02T07:39:11.406Z,65
2018-06-02T07:40:12.131Z,70
2018-06-02T07:41:12.844Z,65
2018-06-02T07:42:13.563Z,70
2018-06-02T07:43:14.283Z,65
2018-06-02T07:44:15.037Z,60
2018-06-02T07:45:15.719Z,70
2018-06-02T07:46:16.450Z,90
2018-06-02T07:47:17.185Z,70
2018-06-02T07:48:17.897Z,75
2018-06-02T07:49:18.615Z,75
2018-06-02T07:50:19.333Z,80
2018-06-02T07:51:20.053Z,75
2018-06-02T07:52:20.771Z,65
2018-06-02T07:53:21.490Z,85
2018-06-02T07:54:22.208Z,105
2018-06-02T07:55:22.927Z,110
2018-06-02T07:56:23.647Z,115
2018-06-02T07:57:24.367Z,105
2018-06-02T07:58:25.087Z,110
2018-06-02T07:59:25.805Z,100
2018-06-02T08:00:26.527Z,115
2018-06-02T08:01:27.251Z,120
2018-06-02T08:02:27.977Z,105
2018-06-02T08:03:28.695Z,105
2018-06-02T08:04:29.417Z,95
2018-06-02T08:05:30.154Z,90
2018-06-02T08:06:30.873Z,110
2018-06-02T08:07:31.594Z,160
2018-06-02T08:08:32.366Z,155
2018-06-02T08:09:33.045Z,140
2018-06-02T08:10:33.765Z,145
2018-06-02T08:11:34.487Z,170
2018-06-02T08:12:35.208Z,170
2018-06-02T08:13:35.928Z,150
2018-06-02T08:14:36.649Z,140
2018-06-02T08:15:37.368Z,130
2018-06-02T08:16:38.089Z,135
2018-06-02T08:17:38.814Z,115
2018-06-02T08:18:39.528Z,120
2018-06-02T08:19:40.259Z,110
2018-06-02T08:20:40.981Z,115
2018-06-02T08:21:41.718Z,125
2018-06-02T08:22:42.433Z,135
2018-06-02T08:23:43.151Z,120
2018-06-02T08:24:43.883Z,95
2018-06-02T08:25:44.604Z,110
2018-06-02T08:26:45.339Z,135
2018-06-02T08:27:46.052Z,140
2018-06-02T08:28:46.771Z,150
2018-06-02T08:29:47.493Z,135
2018-06-02T08:30:48.214Z,125
2018-06-02T08:31:48.945Z,120
2018-06-02T08:32:49.667Z,120
2018-06-02T08:33:50.386Z,130
2018-06-02T08:34:51.107Z,110
2018-06-02T08:35:51.827Z,130
2018-06-02T08:36:52.546Z,130
2018-06-02T08:37:53.279Z,125
2018-06-02T08:38:54.048Z,145
2018-06-02T08:39:54.743Z,130
2018-06-02T08:40:55.464Z,150
2018-06-02T08:41:56.197Z,170
2018-06-02T08:42:56.917Z,175
2018-06-02T08:43:57.637Z,185
2018-06-02T08:44:58.357Z,180
2018-06-02T08:45:59.078Z,180
2018-06-02T08:46:59.799Z,175
2018-06-02T08:48:00.519Z,165
2018-06-02T08:49:01.243Z,190
2018-06-02T08:50:01.975Z,190
2018-06-02T08:51:02.684Z,180
2018-06-02T08:52:03.404Z,165
2018-06-02T08:53:04.137Z,175
2018-06-02T08:54:04.857Z,180
2018-06-02T08:55:05.590Z,190
2018-06-02T08:56:06.323Z,195
2018-06-02T08:57:07.042Z,200
2018-06-02T08:58:07.762Z,190
2018-06-02T08:59:08.494Z,150
2018-06-02T09:00:09.213Z,125
2018-06-02T09:01:09.935Z,120
2018-06-02T09:02:10.654Z,170
2018-06-02T09:03:11.389Z,190
2018-06-02T09:04:12.120Z,190
2018-06-02T09:05:12.855Z,200
2018-06-02T09:06:13.578Z,230
2018-06-02T09:07:14.295Z,215
2018-06-02T09:08:15.015Z,175
2018-06-02T09:09:15.737Z,170
2018-06-02T09:10:16.458Z,210
2018-06-02T09:11:17.180Z,220
2018-06-02T09:12:17.915Z,190
2018-06-02T09:13:18.634Z,205
2018-06-02T09:14:19.354Z,190
2018-06-02T09:15:20.086Z,170
2018-06-02T09:16:20.809Z,155
2018-06-02T09:17:21.530Z,135
2018-06-02T09:18:22.252Z,130
2018-06-02T09:19:22.970Z,115
2018-06-02T09:20:23.705Z,145
2018-06-02T09:21:24.436Z,185
2018-06-02T09:22:25.158Z,220
2018-06-02T09:23:25.877Z,215
2018-06-02T09:24:26.597Z,200
2018-06-02T09:25:27.318Z,190
2018-06-02T09:26:28.037Z,165
2018-06-02T09:27:28.759Z,175
2018-06-02T09:28:29.480Z,185
2018-06-02T09:29:30.213Z,245
2018-06-02T09:30:30.936Z,290
2018-06-02T09:31:31.657Z,305
2018-06-02T09:32:32.389Z,305
2018-06-02T09:33:33.107Z,285
2018-06-02T09:34:33.830Z,305
2018-06-02T09:35:34.548Z,345
2018-06-02T09:36:35.282Z,400
2018-06-02T09:37:36.006Z,400
2018-06-02T09:38:36.741Z,420
2018-06-02T09:39:37.472Z,425
2018-06-02T09:40:38.197Z,440
2018-06-02T09:41:38.921Z,450
2018-06-02T09:42:39.642Z,435
2018-06-02T09:43:40.365Z,385
2018-06-02T09:44:41.102Z,330
2018-06-02T09:45:41.825Z,310
2018-06-02T09:46:42.558Z,335
2018-06-02T09:47:43.285Z,340
2018-06-02T09:48:44.003Z,340
2018-06-02T09:49:44.729Z,345
2018-06-02T09:50:45.463Z,330
2018-06-02T09:51:46.187Z,305
2018-06-02T09:52:46.911Z,285
2018-06-02T09:53:47.635Z,250
2018-06-02T09:54:48.357Z,200
2018-06-02T09:55:49.078Z,225
2018-06-02T09:56:49.815Z,270
2018-06-02T09:57:50.535Z,300
2018-06-02T09:58:51.270Z,280
2018-06-02T09:59:52.004Z,260
2018-06-02T10:00:52.725Z,230
2018-06-02T10:01:53.447Z,220
2018-06-02T10:02:54.171Z,220
2018-06-02T10:03:54.901Z,235
2018-06-02T10:04:55.615Z,225
2018-06-02T10:05:56.337Z,240
2018-06-02T10:06:57.063Z,260
2018-06-02T10:07:57.783Z,285
2018-06-02T10:08:58.506Z,300
2018-06-02T10:09:59.229Z,295
2018-06-02T10:10:59.956Z,255
2018-06-02T10:12:00.674Z,220
2018-06-02T10:13:01.393Z,260
2018-06-02T10:14:02.116Z,320
2018-06-02T10:15:02.839Z,360
2018-06-02T10:16:03.562Z,380
2018-06-02T10:17:04.289Z,390
2018-06-02T10:18:05.010Z,380
2018-06-02T10:19:05.733Z,365
2018-06-02T10:20:06.470Z,340
2018-06-02T10:21:07.202Z,325
2018-06-02T10:22:07.927Z,325
2018-06-02T10:23:08.649Z,300
2018-06-02T10:24:09.372Z,295
2018-06-02T10:25:10.107Z,350
2018-06-02T10:26:10.837Z,390
2018-06-02T10:27:11.570Z,420
2018-06-02T10:28:12.291Z,450
2018-06-02T10:29:13.015Z,475
2018-06-02T10:30:13.739Z,465
2018-06-02T10:31:14.466Z,445
2018-06-02T10:32:15.192Z,1225
2018-06-02T10:33:15.937Z,470
2018-06-02T10:34:16.651Z,405
2018-06-02T10:35:17.384Z,320
2018-06-02T10:36:18.113Z,265
2018-06-02T10:37:18.838Z,225
2018-06-02T10:38:19.561Z,200
2018-06-02T10:39:20.298Z,190
2018-06-02T10:40:21.022Z,185
2018-06-02T10:41:21.743Z,205
2018-06-02T10:42:22.467Z,225
2018-06-02T10:43:23.190Z,230
2018-06-02T10:44:23.926Z,250
2018-06-02T10:45:24.648Z,280
2018-06-02T10:46:25.372Z,320
2018-06-02T10:47:26.107Z,380
2018-06-02T10:48:26.847Z,395
2018-06-02T10:49:27.566Z,430
2018-06-02T10:50:28.292Z,450
2018-06-02T10:51:29.017Z,400
2018-06-02T10:52:29.741Z,285
2018-06-02T10:53:30.476Z,225
2018-06-02T10:54:31.198Z,205
2018-06-02T10:55:31.926Z,190
2018-06-02T10:56:32.655Z,200
2018-06-02T10:57:33.383Z,220
2018-06-02T10:58:34.115Z,270
2018-06-02T10:59:34.839Z,340
2018-06-02T11:00:35.563Z,390
2018-06-02T11:01:36.341Z,390
2018-06-02T11:02:37.025Z,405
2018-06-02T11:03:37.749Z,455
2018-06-02T11:04:38.473Z,510
2018-06-02T11:05:39.199Z,535
2018-06-02T11:06:39.924Z,530
2018-06-02T11:07:40.660Z,495
2018-06-02T11:08:41.388Z,410
2018-06-02T11:09:42.116Z,355
2018-06-02T11:10:42.838Z,320
2018-06-02T11:11:43.562Z,255
2018-06-02T11:12:44.296Z,210
2018-06-02T11:13:45.041Z,180
2018-06-02T11:14:45.868Z,155
2018-06-02T11:15:46.589Z,120
2018-06-02T11:16:47.313Z,110
2018-06-02T11:17:48.037Z,110
2018-06-02T11:18:48.761Z,105
2018-06-02T11:19:49.483Z,100
2018-06-02T11:20:50.216Z,95
2018-06-02T11:21:50.938Z,100
2018-06-02T11:22:51.669Z,90
2018-06-02T11:23:52.388Z,75
2018-06-02T11:24:53.159Z,70
2018-06-02T11:25:53.876Z,75
2018-06-02T11:26:54.597Z,85
2018-06-02T11:27:55.330Z,95
2018-06-02T11:28:56.053Z,100
2018-06-02T11:29:56.775Z,100
2018-06-02T11:30:57.495Z,105
2018-06-02T11:31:58.216Z,105
2018-06-02T11:32:58.939Z,105
2018-06-02T11:33:59.664Z,115
2018-06-02T11:35:00.397Z,130
2018-06-02T11:36:01.128Z,145
2018-06-02T11:37:01.849Z,150
2018-06-02T11:38:02.583Z,160
2018-06-02T11:39:03.400Z,150
2018-06-02T11:40:04.174Z,155
2018-06-02T11:41:04.898Z,160
2018-06-02T11:42:05.620Z,170
2018-06-02T11:43:06.341Z,180
2018-06-02T11:44:07.082Z,190
2018-06-02T11:45:07.811Z,190
2018-06-02T11:46:08.545Z,195
2018-06-02T11:47:09.279Z,205
2018-06-02T11:48:10.001Z,230
2018-06-02T11:49:10.726Z,275
2018-06-02T11:50:11.460Z,330
2018-06-02T11:51:12.181Z,400
2018-06-02T11:52:12.901Z,445
2018-06-02T11:53:13.624Z,440
2018-06-02T11:54:14.351Z,435
2018-06-02T11:55:15.077Z,435
2018-06-02T11:56:15.796Z,405
2018-06-02T11:57:16.518Z,365
2018-06-02T11:58:17.244Z,330
2018-06-02T11:59:17.968Z,295
2018-06-02T12:00:18.690Z,280
2018-06-02T12:01:19.410Z,265
2018-06-02T12:02:20.133Z,245
2018-06-02T12:03:20.854Z,225
2018-06-02T12:04:21.576Z,215
2018-06-02T12:05:22.310Z,205
2018-06-02T12:06:23.035Z,200
2018-06-02T12:07:23.766Z,210
2018-06-02T12:08:24.488Z,225
2018-06-02T12:09:25.214Z,245
2018-06-02T12:10:25.938Z,265
2018-06-02T12:11:26.669Z,280
2018-06-02T12:12:27.402Z,285
2018-06-02T12:13:28.124Z,285
2018-06-02T12:14:28.848Z,290
2018-06-02T12:15:29.570Z,305
2018-06-02T12:16:30.294Z,305
2018-06-02T12:17:31.019Z,320
2018-06-02T12:18:31.753Z,305
2018-06-02T12:19:32.476Z,285
2018-06-02T12:20:33.241Z,275
2018-06-02T12:21:33.934Z,260
2018-06-02T12:22:34.668Z,220
2018-06-02T12:23:35.388Z,220
2018-06-02T12:24:36.110Z,220
2018-06-02T12:25:36.835Z,220
2018-06-02T12:26:37.556Z,215
2018-06-02T12:27:38.277Z,210
2018-06-02T12:28:39.001Z,210
2018-06-02T12:29:39.722Z,210
2018-06-02T12:30:40.456Z,200
2018-06-02T12:31:41.178Z,190
2018-06-02T12:32:41.900Z,180
2018-06-02T12:33:42.627Z,185
2018-06-02T12:34:43.358Z,205
2018-06-02T12:35:44.065Z,225
2018-06-02T12:36:44.826Z,235
2018-06-02T12:37:45.509Z,240
2018-06-02T12:38:46.231Z,250
2018-06-02T12:39:46.954Z,275
2018-06-02T12:40:47.675Z,305
2018-06-02T12:41:48.399Z,325
2018-06-02T12:42:49.123Z,330
2018-06-02T12:43:49.846Z,315
2018-06-02T12:44:50.571Z,280
2018-06-02T12:45:51.305Z,275
2018-06-02T12:46:52.028Z,285
2018-06-02T12:47:52.750Z,300
2018-06-02T12:48:53.473Z,310
2018-06-02T12:49:54.199Z,310
2018-06-02T12:50:54.920Z,315
2018-06-02T12:51:55.656Z,325
2018-06-02T12:52:56.388Z,335
2018-06-02T12:53:57.125Z,330
2018-06-02T12:54:57.859Z,305
2018-06-02T12:55:58.582Z,285
2018-06-02T12:56:59.318Z,255
2018-06-02T12:58:00.041Z,230
2018-06-02T12:59:00.763Z,200
2018-06-02T13:00:01.484Z,180
2018-06-02T13:01:02.208Z,170
2018-06-02T13:02:02.929Z,160
2018-06-02T13:03:03.653Z,160
2018-06-02T13:04:04.376Z,160
2018-06-02T13:05:05.100Z,155
2018-06-02T13:06:05.821Z,160
2018-06-02T13:07:06.540Z,155
2018-06-02T13:08:07.263Z,155
2018-06-02T13:09:07.989Z,165
2018-06-02T13:10:08.721Z,175
2018-06-02T13:11:09.442Z,210
2018-06-02T13:12:10.164Z,250
2018-06-02T13:13:10.886Z,280
2018-06-02T13:14:11.612Z,295
2018-06-02T13:15:12.331Z,290
2018-06-02T13:16:13.053Z,280
2018-06-02T13:17:13.788Z,255
2018-06-02T13:18:14.520Z,260
2018-06-02T13:19:15.244Z,330
2018-06-02T13:20:15.981Z,400
2018-06-02T13:21:16.758Z,365
2018-06-02T13:22:17.428Z,335
2018-06-02T13:23:18.167Z,300
2018-06-02T13:24:18.899Z,310
2018-06-02T13:25:19.622Z,315
2018-06-02T13:26:20.346Z,310
2018-06-02T13:27:21.070Z,315
2018-06-02T13:28:21.796Z,315
2018-06-02T13:29:22.525Z,305
2018-06-02T13:30:23.244Z,295
2018-06-02T13:31:23.968Z,290
2018-06-02T13:32:24.697Z,285
2018-06-02T13:33:25.428Z,280
2018-06-02T13:34:26.151Z,275
2018-06-02T13:35:26.886Z,270
2018-06-02T13:36:27.618Z,255
2018-06-02T13:37:28.351Z,250
2018-06-02T13:38:29.085Z,240
2018-06-02T13:39:29.808Z,225
2018-06-02T13:40:30.529Z,215
2018-06-02T13:41:31.263Z,225
2018-06-02T13:42:31.984Z,240
2018-06-02T13:43:32.706Z,265
2018-06-02T13:44:33.435Z,295
2018-06-02T13:45:34.156Z,320
2018-06-02T13:46:34.879Z,335
2018-06-02T13:47:35.602Z,345
2018-06-02T13:48:36.325Z,330
2018-06-02T13:49:37.049Z,295
2018-06-02T13:50:37.813Z,270
2018-06-02T13:51:38.498Z,275
2018-06-02T13:52:39.219Z,290
2018-06-02T13:53:39.942Z,310
2018-06-02T13:54:40.668Z,310
2018-06-02T13:55:41.390Z,295
2018-06-02T13:56:42.112Z,270
2018-06-02T13:57:42.835Z,245
2018-06-02T13:58:43.559Z,240
2018-06-02T13:59:44.281Z,265
2018-06-02T14:00:45.006Z,280
2018-06-02T14:01:45.729Z,275
2018-06-02T14:02:46.452Z,270
2018-06-02T14:03:47.175Z,255
2018-06-02T14:04:47.899Z,230
2018-06-02T14:05:48.624Z,210
2018-06-02T14:06:49.346Z,190
2018-06-02T14:07:50.083Z,185
2018-06-02T14:08:50.815Z,200
2018-06-02T14:09:51.538Z,210
2018-06-02T14:10:52.261Z,215
2018-06-02T14:11:52.984Z,230
2018-06-02T14:12:53.708Z,255
2018-06-02T14:13:54.431Z,275
2018-06-02T14:14:55.156Z,270
2018-06-02T14:15:55.879Z,275
2018-06-02T14:16:56.600Z,280
2018-06-02T14:17:57.324Z,285
2018-06-02T14:18:58.048Z,285
2018-06-02T14:19:58.772Z,290
2018-06-02T14:20:59.496Z,305
2018-06-02T14:22:00.237Z,305
2018-06-02T14:23:00.956Z,295